sensor_id;sensor_type;location;lat;lon;timestamp;P1;durP1;ratioP1;P2;durP2;ratioP2
40022;SDS011;25713;-35.352;149.036;2023-07-22T00:01:10;2.00;;;1.00;;
40022;SDS011;25713;-35.352;149.036;2023-07-22T00:03:40;2.13;;;0.80;;
40022;SDS011;25713;-35.352;149.036;2023-07-22T00:06:09;1.75;;;1.00;;
40022;SDS011;25713;-35.352;149.036;2023-07-22T00:08:41;2.58;;;0.80;;
40022;SDS011;25713;-35.352;149.036;2023-07-22T00:11:10;1.60;;;0.70;;
40022;SDS011;25713;-35.352;149.036;2023-07-22T00:13:40;1.88;;;0.80;;
40022;SDS011;25713;-35.352;149.036;2023-07-22T00:16:09;2.00;;;1.00;;
40022;SDS011;25713;-35.352;149.036;2023-07-22T00:18:38;1.75;;;1.02;;
40022;SDS011;25713;-35.352;149.036;2023-07-22T00:21:08;1.67;;;0.80;;
40022;SDS011;25713;-35.352;149.036;2023-07-22T00:23:39;2.58;;;1.00;;
40022;SDS011;25713;-35.352;149.036;2023-07-22T00:26:09;1.70;;;0.80;;
40022;SDS011;25713;-35.352;149.036;2023-07-22T00:28:38;1.13;;;0.80;;
40022;SDS011;25713;-35.352;149.036;2023-07-22T00:31:07;1.02;;;0.70;;
40022;SDS011;25713;-35.352;149.036;2023-07-22T00:33:37;2.42;;;0.90;;
40022;SDS011;25713;-35.352;149.036;2023-07-22T00:36:06;1.38;;;0.70;;
40022;SDS011;25713;-35.352;149.036;2023-07-22T00:38:36;1.42;;;0.90;;
40022;SDS011;25713;-35.352;149.036;2023-07-22T00:41:08;1.23;;;0.63;;
40022;SDS011;25713;-35.352;149.036;2023-07-22T00:46:06;0.90;;;0.60;;
40022;SDS011;25713;-35.352;149.036;2023-07-22T00:48:35;1.38;;;0.65;;
40022;SDS011;25713;-35.352;149.036;2023-07-22T00:51:05;0.75;;;0.60;;
40022;SDS011;25713;-35.352;149.036;2023-07-22T00:53:35;0.90;;;0.70;;
40022;SDS011;25713;-35.352;149.036;2023-07-22T00:56:05;1.77;;;0.70;;
40022;SDS011;25713;-35.352;149.036;2023-07-22T00:58:37;1.42;;;0.70;;
40022;SDS011;25713;-35.352;149.036;2023-07-22T01:01:06;1.10;;;0.73;;
40022;SDS011;25713;-35.352;149.036;2023-07-22T01:03:36;1.05;;;0.60;;
40022;SDS011;25713;-35.352;149.036;2023-07-22T01:06:05;1.30;;;0.55;;
40022;SDS011;25713;-35.352;149.036;2023-07-22T01:08:35;1.27;;;0.50;;
40022;SDS011;25713;-35.352;149.036;2023-07-22T01:11:04;0.90;;;0.50;;
40022;SDS011;25713;-35.352;149.036;2023-07-22T01:13:37;1.50;;;0.50;;
40022;SDS011;25713;-35.352;149.036;2023-07-22T01:16:06;1.05;;;0.75;;
40022;SDS011;25713;-35.352;149.036;2023-07-22T01:18:36;0.82;;;0.60;;
40022;SDS011;25713;-35.352;149.036;2023-07-22T01:21:06;0.80;;;0.60;;
40022;SDS011;25713;-35.352;149.036;2023-07-22T01:23:38;1.05;;;0.70;;
40022;SDS011;25713;-35.352;149.036;2023-07-22T01:26:07;2.10;;;0.63;;
40022;SDS011;25713;-35.352;149.036;2023-07-22T01:28:37;1.00;;;0.60;;
40022;SDS011;25713;-35.352;149.036;2023-07-22T01:31:06;0.77;;;0.57;;
40022;SDS011;25713;-35.352;149.036;2023-07-22T01:33:35;0.82;;;0.68;;
40022;SDS011;25713;-35.352;149.036;2023-07-22T01:36:05;0.73;;;0.50;;
40022;SDS011;25713;-35.352;149.036;2023-07-22T01:38:34;0.77;;;0.60;;
40022;SDS011;25713;-35.352;149.036;2023-07-22T01:41:06;1.27;;;0.70;;
40022;SDS011;25713;-35.352;149.036;2023-07-22T01:43:35;0.65;;;0.60;;
40022;SDS011;25713;-35.352;149.036;2023-07-22T01:46:05;0.77;;;0.60;;
40022;SDS011;25713;-35.352;149.036;2023-07-22T01:48:34;2.08;;;0.63;;
40022;SDS011;25713;-35.352;149.036;2023-07-22T01:51:04;0.52;;;0.47;;
40022;SDS011;25713;-35.352;149.036;2023-07-22T01:53:33;0.60;;;0.50;;
40022;SDS011;25713;-35.352;149.036;2023-07-22T01:56:05;0.95;;;0.60;;
40022;SDS011;25713;-35.352;149.036;2023-07-22T02:01:03;0.68;;;0.40;;
40022;SDS011;25713;-35.352;149.036;2023-07-22T02:03:32;1.08;;;0.50;;
40022;SDS011;25713;-35.352;149.036;2023-07-22T02:06:02;0.88;;;0.60;;
40022;SDS011;25713;-35.352;149.036;2023-07-22T02:08:32;0.68;;;0.40;;
40022;SDS011;25713;-35.352;149.036;2023-07-22T02:11:02;0.60;;;0.50;;
40022;SDS011;25713;-35.352;149.036;2023-07-22T02:13:35;1.02;;;0.50;;
40022;SDS011;25713;-35.352;149.036;2023-07-22T02:16:05;1.23;;;0.50;;
40022;SDS011;25713;-35.352;149.036;2023-07-22T02:18:34;1.58;;;0.40;;
40022;SDS011;25713;-35.352;149.036;2023-07-22T02:21:04;1.05;;;0.50;;
40022;SDS011;25713;-35.352;149.036;2023-07-22T02:23:33;0.50;;;0.50;;
40022;SDS011;25713;-35.352;149.036;2023-07-22T02:26:02;0.50;;;0.40;;
40022;SDS011;25713;-35.352;149.036;2023-07-22T02:28:35;0.68;;;0.50;;
40022;SDS011;25713;-35.352;149.036;2023-07-22T02:31:04;0.60;;;0.40;;
40022;SDS011;25713;-35.352;149.036;2023-07-22T02:33:34;1.58;;;0.50;;
40022;SDS011;25713;-35.352;149.036;2023-07-22T02:36:03;0.65;;;0.60;;
40022;SDS011;25713;-35.352;149.036;2023-07-22T02:38:33;0.80;;;0.50;;
40022;SDS011;25713;-35.352;149.036;2023-07-22T02:41:02;0.82;;;0.50;;
40022;SDS011;25713;-35.352;149.036;2023-07-22T02:46:03;0.80;;;0.50;;
40022;SDS011;25713;-35.352;149.036;2023-07-22T02:48:33;0.80;;;0.60;;
40022;SDS011;25713;-35.352;149.036;2023-07-22T02:51:03;0.95;;;0.40;;
40022;SDS011;25713;-35.352;149.036;2023-07-22T02:53:33;0.75;;;0.50;;
40022;SDS011;25713;-35.352;149.036;2023-07-22T02:56:03;0.73;;;0.50;;
40022;SDS011;25713;-35.352;149.036;2023-07-22T02:58:36;0.68;;;0.50;;
40022;SDS011;25713;-35.352;149.036;2023-07-22T03:01:06;0.40;;;0.30;;
40022;SDS011;25713;-35.352;149.036;2023-07-22T03:03:36;0.55;;;0.32;;
40022;SDS011;25713;-35.352;149.036;2023-07-22T03:06:06;1.23;;;0.50;;
40022;SDS011;25713;-35.352;149.036;2023-07-22T03:08:36;0.40;;;0.40;;
40022;SDS011;25713;-35.352;149.036;2023-07-22T03:11:08;1.63;;;0.50;;
40022;SDS011;25713;-35.352;149.036;2023-07-22T03:13:38;0.63;;;0.40;;
40022;SDS011;25713;-35.352;149.036;2023-07-22T03:16:08;1.20;;;0.60;;
40022;SDS011;25713;-35.352;149.036;2023-07-22T03:18:37;0.68;;;0.50;;
40022;SDS011;25713;-35.352;149.036;2023-07-22T03:21:07;0.50;;;0.40;;
40022;SDS011;25713;-35.352;149.036;2023-07-22T03:23:36;0.70;;;0.40;;
40022;SDS011;25713;-35.352;149.036;2023-07-22T03:26:09;0.90;;;0.55;;
40022;SDS011;25713;-35.352;149.036;2023-07-22T03:28:39;1.40;;;0.40;;
40022;SDS011;25713;-35.352;149.036;2023-07-22T03:31:09;2.88;;;0.40;;
40022;SDS011;25713;-35.352;149.036;2023-07-22T03:33:39;1.13;;;0.40;;
40022;SDS011;25713;-35.352;149.036;2023-07-22T03:36:08;1.45;;;0.50;;
40022;SDS011;25713;-35.352;149.036;2023-07-22T03:38:37;0.40;;;0.40;;
40022;SDS011;25713;-35.352;149.036;2023-07-22T03:41:10;0.60;;;0.32;;
40022;SDS011;25713;-35.352;149.036;2023-07-22T03:43:39;2.53;;;0.47;;
40022;SDS011;25713;-35.352;149.036;2023-07-22T03:46:09;1.20;;;0.50;;
40022;SDS011;25713;-35.352;149.036;2023-07-22T03:48:38;0.57;;;0.47;;
40022;SDS011;25713;-35.352;149.036;2023-07-22T03:51:08;1.55;;;0.57;;
40022;SDS011;25713;-35.352;149.036;2023-07-22T03:53:38;1.35;;;0.70;;
40022;SDS011;25713;-35.352;149.036;2023-07-22T03:56:07;1.90;;;0.52;;
40022;SDS011;25713;-35.352;149.036;2023-07-22T03:58:38;0.88;;;0.50;;
40022;SDS011;25713;-35.352;149.036;2023-07-22T04:01:08;1.88;;;0.50;;
40022;SDS011;25713;-35.352;149.036;2023-07-22T04:03:39;0.93;;;0.50;;
40022;SDS011;25713;-35.352;149.036;2023-07-22T04:06:09;1.13;;;0.70;;
40022;SDS011;25713;-35.352;149.036;2023-07-22T04:08:38;1.65;;;0.70;;
40022;SDS011;25713;-35.352;149.036;2023-07-22T04:11:07;1.85;;;0.95;;
40022;SDS011;25713;-35.352;149.036;2023-07-22T04:13:38;0.70;;;0.50;;
40022;SDS011;25713;-35.352;149.036;2023-07-22T04:16:09;3.28;;;0.45;;
40022;SDS011;25713;-35.352;149.036;2023-07-22T04:18:39;0.70;;;0.50;;
40022;SDS011;25713;-35.352;149.036;2023-07-22T04:21:08;1.45;;;0.50;;
40022;SDS011;25713;-35.352;149.036;2023-07-22T04:23:37;0.98;;;0.60;;
40022;SDS011;25713;-35.352;149.036;2023-07-22T04:26:06;0.55;;;0.40;;
40022;SDS011;25713;-35.352;149.036;2023-07-22T04:28:38;0.80;;;0.40;;
40022;SDS011;25713;-35.352;149.036;2023-07-22T04:31:08;0.73;;;0.50;;
40022;SDS011;25713;-35.352;149.036;2023-07-22T04:33:37;0.85;;;0.60;;
40022;SDS011;25713;-35.352;149.036;2023-07-22T04:36:06;0.65;;;0.40;;
40022;SDS011;25713;-35.352;149.036;2023-07-22T04:38:36;0.90;;;0.50;;
40022;SDS011;25713;-35.352;149.036;2023-07-22T04:41:05;0.65;;;0.50;;
40022;SDS011;25713;-35.352;149.036;2023-07-22T04:43:35;0.57;;;0.50;;
40022;SDS011;25713;-35.352;149.036;2023-07-22T04:46:06;1.60;;;0.50;;
40022;SDS011;25713;-35.352;149.036;2023-07-22T04:48:35;0.70;;;0.55;;
40022;SDS011;25713;-35.352;149.036;2023-07-22T04:51:05;0.63;;;0.63;;
40022;SDS011;25713;-35.352;149.036;2023-07-22T04:53:34;1.25;;;0.45;;
40022;SDS011;25713;-35.352;149.036;2023-07-22T04:56:03;0.93;;;0.38;;
40022;SDS011;25713;-35.352;149.036;2023-07-22T04:58:33;0.93;;;0.57;;
40022;SDS011;25713;-35.352;149.036;2023-07-22T05:01:04;1.55;;;0.47;;
40022;SDS011;25713;-35.352;149.036;2023-07-22T05:03:34;1.13;;;0.45;;
40022;SDS011;25713;-35.352;149.036;2023-07-22T05:06:03;0.68;;;0.50;;
40022;SDS011;25713;-35.352;149.036;2023-07-22T05:08:33;1.30;;;0.60;;
40022;SDS011;25713;-35.352;149.036;2023-07-22T05:11:02;0.70;;;0.50;;
40022;SDS011;25713;-35.352;149.036;2023-07-22T05:13:32;0.80;;;0.60;;
40022;SDS011;25713;-35.352;149.036;2023-07-22T05:16:01;1.10;;;0.43;;
40022;SDS011;25713;-35.352;149.036;2023-07-22T05:18:32;1.27;;;0.60;;
40022;SDS011;25713;-35.352;149.036;2023-07-22T05:21:02;1.77;;;0.60;;
40022;SDS011;25713;-35.352;149.036;2023-07-22T05:23:31;0.60;;;0.50;;
40022;SDS011;25713;-35.352;149.036;2023-07-22T05:26:01;2.35;;;0.60;;
40022;SDS011;25713;-35.352;149.036;2023-07-22T05:28:31;0.90;;;0.60;;
40022;SDS011;25713;-35.352;149.036;2023-07-22T05:31:00;1.88;;;0.60;;
40022;SDS011;25713;-35.352;149.036;2023-07-22T05:33:31;0.90;;;0.60;;
40022;SDS011;25713;-35.352;149.036;2023-07-22T05:36:01;1.05;;;0.60;;
40022;SDS011;25713;-35.352;149.036;2023-07-22T05:38:31;0.60;;;0.50;;
40022;SDS011;25713;-35.352;149.036;2023-07-22T05:41:00;0.70;;;0.60;;
40022;SDS011;25713;-35.352;149.036;2023-07-22T05:43:29;1.55;;;0.65;;
40022;SDS011;25713;-35.352;149.036;2023-07-22T05:45:59;1.60;;;0.70;;
40022;SDS011;25713;-35.352;149.036;2023-07-22T05:48:29;1.17;;;0.52;;
40022;SDS011;25713;-35.352;149.036;2023-07-22T05:51:00;0.70;;;0.47;;
40022;SDS011;25713;-35.352;149.036;2023-07-22T05:53:30;1.23;;;0.70;;
40022;SDS011;25713;-35.352;149.036;2023-07-22T05:56:00;1.00;;;0.50;;
40022;SDS011;25713;-35.352;149.036;2023-07-22T05:58:29;2.40;;;0.70;;
40022;SDS011;25713;-35.352;149.036;2023-07-22T06:00:58;1.90;;;0.55;;
40022;SDS011;25713;-35.352;149.036;2023-07-22T06:03:28;2.75;;;0.70;;
40022;SDS011;25713;-35.352;149.036;2023-07-22T06:05:59;3.80;;;0.60;;
40022;SDS011;25713;-35.352;149.036;2023-07-22T06:08:29;0.52;;;0.52;;
40022;SDS011;25713;-35.352;149.036;2023-07-22T06:10:58;1.10;;;0.63;;
40022;SDS011;25713;-35.352;149.036;2023-07-22T06:13:28;1.50;;;0.73;;
40022;SDS011;25713;-35.352;149.036;2023-07-22T06:15:57;1.23;;;0.50;;
40022;SDS011;25713;-35.352;149.036;2023-07-22T06:18:27;2.10;;;0.60;;
40022;SDS011;25713;-35.352;149.036;2023-07-22T06:20:56;1.08;;;0.70;;
40022;SDS011;25713;-35.352;149.036;2023-07-22T06:23:28;1.30;;;0.68;;
40022;SDS011;25713;-35.352;149.036;2023-07-22T06:25:58;2.65;;;0.60;;
40022;SDS011;25713;-35.352;149.036;2023-07-22T06:28:27;1.13;;;0.90;;
40022;SDS011;25713;-35.352;149.036;2023-07-22T06:30:57;1.58;;;0.75;;
40022;SDS011;25713;-35.352;149.036;2023-07-22T06:33:26;1.48;;;0.60;;
40022;SDS011;25713;-35.352;149.036;2023-07-22T06:35:56;0.60;;;0.60;;
40022;SDS011;25713;-35.352;149.036;2023-07-22T06:38:28;2.33;;;0.60;;
40022;SDS011;25713;-35.352;149.036;2023-07-22T06:40:58;1.02;;;0.60;;
40022;SDS011;25713;-35.352;149.036;2023-07-22T06:43:28;0.60;;;0.60;;
40022;SDS011;25713;-35.352;149.036;2023-07-22T06:45:57;0.82;;;0.47;;
40022;SDS011;25713;-35.352;149.036;2023-07-22T06:48:26;1.35;;;0.68;;
40022;SDS011;25713;-35.352;149.036;2023-07-22T06:50:56;1.63;;;1.42;;
40022;SDS011;25713;-35.352;149.036;2023-07-22T06:53:27;1.13;;;0.60;;
40022;SDS011;25713;-35.352;149.036;2023-07-22T06:55:57;1.55;;;0.82;;
40022;SDS011;25713;-35.352;149.036;2023-07-22T06:58:27;0.80;;;0.70;;
40022;SDS011;25713;-35.352;149.036;2023-07-22T07:00:56;2.22;;;0.70;;
40022;SDS011;25713;-35.352;149.036;2023-07-22T07:03:26;2.08;;;0.80;;
40022;SDS011;25713;-35.352;149.036;2023-07-22T07:05:55;1.17;;;0.50;;
40022;SDS011;25713;-35.352;149.036;2023-07-22T07:08:25;1.25;;;0.77;;
40022;SDS011;25713;-35.352;149.036;2023-07-22T07:10:58;0.70;;;0.60;;
40022;SDS011;25713;-35.352;149.036;2023-07-22T07:13:28;1.53;;;0.80;;
40022;SDS011;25713;-35.352;149.036;2023-07-22T07:15:58;1.08;;;0.70;;
40022;SDS011;25713;-35.352;149.036;2023-07-22T07:18:51;2.08;;;0.63;;
40022;SDS011;25713;-35.352;149.036;2023-07-22T07:21:22;0.67;;;0.50;;
40022;SDS011;25713;-35.352;149.036;2023-07-22T07:23:54;0.88;;;0.65;;
40022;SDS011;25713;-35.352;149.036;2023-07-22T07:28:53;1.73;;;0.80;;
40022;SDS011;25713;-35.352;149.036;2023-07-22T07:31:23;0.80;;;0.70;;
40022;SDS011;25713;-35.352;149.036;2023-07-22T07:33:53;2.05;;;0.95;;
40022;SDS011;25713;-35.352;149.036;2023-07-22T07:36:23;0.77;;;0.68;;
40022;SDS011;25713;-35.352;149.036;2023-07-22T07:38:54;2.60;;;0.85;;
40022;SDS011;25713;-35.352;149.036;2023-07-22T07:41:24;2.67;;;1.10;;
40022;SDS011;25713;-35.352;149.036;2023-07-22T07:43:54;1.55;;;0.82;;
40022;SDS011;25713;-35.352;149.036;2023-07-22T07:46:24;1.40;;;0.93;;
40022;SDS011;25713;-35.352;149.036;2023-07-22T07:48:59;1.08;;;0.88;;
40022;SDS011;25713;-35.352;149.036;2023-07-22T07:51:36;2.28;;;1.00;;
40022;SDS011;25713;-35.352;149.036;2023-07-22T07:54:13;1.33;;;0.95;;
40022;SDS011;25713;-35.352;149.036;2023-07-22T07:56:45;1.52;;;1.10;;
40022;SDS011;25713;-35.352;149.036;2023-07-22T07:59:16;1.80;;;1.02;;
40022;SDS011;25713;-35.352;149.036;2023-07-22T08:01:46;2.05;;;1.10;;
40022;SDS011;25713;-35.352;149.036;2023-07-22T08:04:19;1.88;;;1.15;;
40022;SDS011;25713;-35.352;149.036;2023-07-22T08:06:50;2.03;;;1.10;;
40022;SDS011;25713;-35.352;149.036;2023-07-22T08:09:23;1.60;;;1.05;;
40022;SDS011;25713;-35.352;149.036;2023-07-22T08:11:53;1.52;;;0.95;;
40022;SDS011;25713;-35.352;149.036;2023-07-22T08:14:27;2.97;;;1.17;;
40022;SDS011;25713;-35.352;149.036;2023-07-22T08:16:59;1.75;;;1.20;;
40022;SDS011;25713;-35.352;149.036;2023-07-22T08:19:28;1.48;;;1.10;;
40022;SDS011;25713;-35.352;149.036;2023-07-22T08:21:58;1.23;;;1.00;;
40022;SDS011;25713;-35.352;149.036;2023-07-22T08:24:30;1.60;;;0.98;;
40022;SDS011;25713;-35.352;149.036;2023-07-22T08:26:59;1.90;;;1.15;;
40022;SDS011;25713;-35.352;149.036;2023-07-22T08:29:35;1.23;;;1.00;;
40022;SDS011;25713;-35.352;149.036;2023-07-22T08:32:09;3.50;;;1.10;;
40022;SDS011;25713;-35.352;149.036;2023-07-22T08:34:39;2.00;;;1.10;;
40022;SDS011;25713;-35.352;149.036;2023-07-22T08:37:08;4.18;;;1.20;;
40022;SDS011;25713;-35.352;149.036;2023-07-22T08:39:40;2.20;;;1.20;;
40022;SDS011;25713;-35.352;149.036;2023-07-22T08:42:09;3.15;;;1.10;;
40022;SDS011;25713;-35.352;149.036;2023-07-22T08:44:41;2.27;;;1.20;;
40022;SDS011;25713;-35.352;149.036;2023-07-22T08:47:16;2.70;;;1.25;;
40022;SDS011;25713;-35.352;149.036;2023-07-22T08:49:49;3.55;;;1.45;;
40022;SDS011;25713;-35.352;149.036;2023-07-22T08:52:21;1.92;;;1.30;;
40022;SDS011;25713;-35.352;149.036;2023-07-22T08:54:53;3.83;;;1.95;;
40022;SDS011;25713;-35.352;149.036;2023-07-22T08:57:24;3.63;;;1.70;;
40022;SDS011;25713;-35.352;149.036;2023-07-22T08:59:54;2.97;;;1.80;;
40022;SDS011;25713;-35.352;149.036;2023-07-22T09:02:24;2.83;;;1.88;;
40022;SDS011;25713;-35.352;149.036;2023-07-22T09:04:54;3.38;;;2.00;;
40022;SDS011;25713;-35.352;149.036;2023-07-22T09:07:23;4.72;;;1.85;;
40022;SDS011;25713;-35.352;149.036;2023-07-22T09:09:55;3.78;;;2.00;;
40022;SDS011;25713;-35.352;149.036;2023-07-22T09:12:26;3.00;;;1.90;;
40022;SDS011;25713;-35.352;149.036;2023-07-22T09:14:55;4.95;;;2.50;;
40022;SDS011;25713;-35.352;149.036;2023-07-22T09:17:26;3.25;;;2.30;;
40022;SDS011;25713;-35.352;149.036;2023-07-22T09:19:56;4.68;;;2.50;;
40022;SDS011;25713;-35.352;149.036;2023-07-22T09:22:26;3.20;;;1.98;;
40022;SDS011;25713;-35.352;149.036;2023-07-22T09:25:00;3.70;;;2.13;;
40022;SDS011;25713;-35.352;149.036;2023-07-22T09:27:41;4.50;;;2.05;;
40022;SDS011;25713;-35.352;149.036;2023-07-22T09:30:23;4.00;;;2.30;;
40022;SDS011;25713;-35.352;149.036;2023-07-22T09:32:54;3.70;;;2.10;;
40022;SDS011;25713;-35.352;149.036;2023-07-22T09:35:25;3.63;;;1.70;;
40022;SDS011;25713;-35.352;149.036;2023-07-22T09:37:56;2.65;;;1.92;;
40022;SDS011;25713;-35.352;149.036;2023-07-22T09:40:29;2.63;;;1.63;;
40022;SDS011;25713;-35.352;149.036;2023-07-22T09:45:29;2.30;;;1.77;;
40022;SDS011;25713;-35.352;149.036;2023-07-22T09:47:59;2.25;;;1.60;;
40022;SDS011;25713;-35.352;149.036;2023-07-22T09:50:28;2.83;;;1.70;;
40022;SDS011;25713;-35.352;149.036;2023-07-22T09:52:58;3.47;;;1.85;;
40022;SDS011;25713;-35.352;149.036;2023-07-22T09:55:31;3.53;;;2.13;;
40022;SDS011;25713;-35.352;149.036;2023-07-22T09:58:01;3.15;;;2.10;;
40022;SDS011;25713;-35.352;149.036;2023-07-22T10:00:32;3.80;;;2.10;;
40022;SDS011;25713;-35.352;149.036;2023-07-22T10:03:02;3.42;;;2.03;;
40022;SDS011;25713;-35.352;149.036;2023-07-22T10:05:35;3.65;;;2.20;;
40022;SDS011;25713;-35.352;149.036;2023-07-22T10:08:06;2.97;;;1.92;;
40022;SDS011;25713;-35.352;149.036;2023-07-22T10:10:39;3.90;;;2.15;;
40022;SDS011;25713;-35.352;149.036;2023-07-22T10:13:12;3.60;;;2.25;;
40022;SDS011;25713;-35.352;149.036;2023-07-22T10:15:42;4.15;;;1.95;;
40022;SDS011;25713;-35.352;149.036;2023-07-22T10:18:12;3.70;;;2.17;;
40022;SDS011;25713;-35.352;149.036;2023-07-22T10:20:42;4.32;;;2.40;;
40022;SDS011;25713;-35.352;149.036;2023-07-22T10:23:13;5.07;;;2.20;;
40022;SDS011;25713;-35.352;149.036;2023-07-22T10:25:46;3.95;;;2.25;;
40022;SDS011;25713;-35.352;149.036;2023-07-22T10:28:17;3.15;;;2.00;;
40022;SDS011;25713;-35.352;149.036;2023-07-22T10:30:48;5.00;;;1.80;;
40022;SDS011;25713;-35.352;149.036;2023-07-22T10:33:19;2.60;;;1.75;;
40022;SDS011;25713;-35.352;149.036;2023-07-22T10:36:01;3.90;;;1.95;;
40022;SDS011;25713;-35.352;149.036;2023-07-22T10:38:32;2.58;;;1.60;;
40022;SDS011;25713;-35.352;149.036;2023-07-22T10:41:11;3.25;;;1.90;;
40022;SDS011;25713;-35.352;149.036;2023-07-22T10:43:41;2.60;;;1.60;;
40022;SDS011;25713;-35.352;149.036;2023-07-22T10:46:30;2.42;;;1.50;;
40022;SDS011;25713;-35.352;149.036;2023-07-22T10:49:08;2.80;;;1.73;;
40022;SDS011;25713;-35.352;149.036;2023-07-22T10:51:40;2.63;;;1.58;;
40022;SDS011;25713;-35.352;149.036;2023-07-22T10:54:15;2.28;;;1.40;;
40022;SDS011;25713;-35.352;149.036;2023-07-22T10:57:04;3.92;;;1.60;;
40022;SDS011;25713;-35.352;149.036;2023-07-22T10:59:51;2.30;;;1.42;;
40022;SDS011;25713;-35.352;149.036;2023-07-22T11:02:25;2.03;;;1.13;;
40022;SDS011;25713;-35.352;149.036;2023-07-22T11:04:56;2.95;;;1.50;;
40022;SDS011;25713;-35.352;149.036;2023-07-22T11:07:33;3.30;;;1.30;;
40022;SDS011;25713;-35.352;149.036;2023-07-22T11:10:14;1.38;;;1.05;;
40022;SDS011;25713;-35.352;149.036;2023-07-22T11:12:46;2.00;;;1.10;;
40022;SDS011;25713;-35.352;149.036;2023-07-22T11:15:17;1.70;;;1.10;;
40022;SDS011;25713;-35.352;149.036;2023-07-22T11:17:47;2.42;;;1.20;;
40022;SDS011;25713;-35.352;149.036;2023-07-22T11:20:17;1.70;;;1.20;;
40022;SDS011;25713;-35.352;149.036;2023-07-22T11:22:50;2.40;;;1.23;;
40022;SDS011;25713;-35.352;149.036;2023-07-22T11:25:20;1.65;;;1.05;;
40022;SDS011;25713;-35.352;149.036;2023-07-22T11:27:52;2.63;;;1.17;;
40022;SDS011;25713;-35.352;149.036;2023-07-22T11:30:23;2.35;;;1.20;;
40022;SDS011;25713;-35.352;149.036;2023-07-22T11:32:57;2.60;;;1.20;;
40022;SDS011;25713;-35.352;149.036;2023-07-22T11:35:27;3.17;;;1.27;;
40022;SDS011;25713;-35.352;149.036;2023-07-22T11:38:00;2.70;;;1.38;;
40022;SDS011;25713;-35.352;149.036;2023-07-22T11:40:33;3.25;;;1.63;;
40022;SDS011;25713;-35.352;149.036;2023-07-22T11:43:04;2.85;;;1.50;;
40022;SDS011;25713;-35.352;149.036;2023-07-22T11:45:34;2.43;;;1.50;;
40022;SDS011;25713;-35.352;149.036;2023-07-22T11:50:37;2.22;;;1.63;;
40022;SDS011;25713;-35.352;149.036;2023-07-22T11:53:07;4.13;;;2.05;;
40022;SDS011;25713;-35.352;149.036;2023-07-22T11:55:37;2.60;;;1.58;;
40022;SDS011;25713;-35.352;149.036;2023-07-22T11:58:10;3.25;;;1.55;;
40022;SDS011;25713;-35.352;149.036;2023-07-22T12:03:10;4.13;;;1.80;;
40022;SDS011;25713;-35.352;149.036;2023-07-22T12:05:42;2.77;;;1.63;;
40022;SDS011;25713;-35.352;149.036;2023-07-22T12:08:14;2.40;;;1.80;;
40022;SDS011;25713;-35.352;149.036;2023-07-22T12:10:44;1.85;;;1.52;;
40022;SDS011;25713;-35.352;149.036;2023-07-22T12:13:25;6.90;;;2.03;;
40022;SDS011;25713;-35.352;149.036;2023-07-22T12:16:01;3.03;;;1.90;;
40022;SDS011;25713;-35.352;149.036;2023-07-22T12:18:41;3.40;;;1.58;;
40022;SDS011;25713;-35.352;149.036;2023-07-22T12:21:11;2.83;;;1.80;;
40022;SDS011;25713;-35.352;149.036;2023-07-22T12:23:41;2.45;;;1.65;;
40022;SDS011;25713;-35.352;149.036;2023-07-22T12:26:10;3.83;;;1.80;;
40022;SDS011;25713;-35.352;149.036;2023-07-22T12:28:41;3.28;;;1.73;;
40022;SDS011;25713;-35.352;149.036;2023-07-22T12:31:11;2.67;;;1.70;;
40022;SDS011;25713;-35.352;149.036;2023-07-22T12:33:40;2.78;;;1.75;;
40022;SDS011;25713;-35.352;149.036;2023-07-22T12:36:10;2.75;;;2.17;;
40022;SDS011;25713;-35.352;149.036;2023-07-22T12:38:39;4.40;;;2.35;;
40022;SDS011;25713;-35.352;149.036;2023-07-22T12:41:09;4.03;;;1.98;;
40022;SDS011;25713;-35.352;149.036;2023-07-22T12:43:38;4.00;;;2.00;;
40022;SDS011;25713;-35.352;149.036;2023-07-22T12:46:09;3.08;;;1.90;;
40022;SDS011;25713;-35.352;149.036;2023-07-22T12:48:39;3.08;;;2.00;;
40022;SDS011;25713;-35.352;149.036;2023-07-22T12:51:09;2.65;;;1.90;;
40022;SDS011;25713;-35.352;149.036;2023-07-22T12:53:38;3.28;;;2.22;;
40022;SDS011;25713;-35.352;149.036;2023-07-22T12:56:08;2.33;;;1.80;;
40022;SDS011;25713;-35.352;149.036;2023-07-22T12:58:37;3.05;;;1.85;;
40022;SDS011;25713;-35.352;149.036;2023-07-22T13:01:09;3.05;;;2.00;;
40022;SDS011;25713;-35.352;149.036;2023-07-22T13:03:38;3.20;;;1.77;;
40022;SDS011;25713;-35.352;149.036;2023-07-22T13:06:07;2.30;;;1.67;;
40022;SDS011;25713;-35.352;149.036;2023-07-22T13:08:37;2.67;;;1.80;;
40022;SDS011;25713;-35.352;149.036;2023-07-22T13:11:06;3.70;;;1.80;;
40022;SDS011;25713;-35.352;149.036;2023-07-22T13:13:36;4.25;;;1.70;;
40022;SDS011;25713;-35.352;149.036;2023-07-22T13:16:05;2.55;;;1.50;;
40022;SDS011;25713;-35.352;149.036;2023-07-22T13:18:36;3.33;;;1.92;;
40022;SDS011;25713;-35.352;149.036;2023-07-22T13:21:06;2.15;;;1.45;;
40022;SDS011;25713;-35.352;149.036;2023-07-22T13:23:39;3.33;;;1.67;;
40022;SDS011;25713;-35.352;149.036;2023-07-22T13:26:08;4.03;;;1.65;;
40022;SDS011;25713;-35.352;149.036;2023-07-22T13:28:37;3.30;;;1.38;;
40022;SDS011;25713;-35.352;149.036;2023-07-22T13:31:09;6.72;;;1.70;;
40022;SDS011;25713;-35.352;149.036;2023-07-22T13:33:39;2.33;;;1.58;;
40022;SDS011;25713;-35.352;149.036;2023-07-22T13:36:08;3.28;;;1.73;;
40022;SDS011;25713;-35.352;149.036;2023-07-22T13:38:38;2.17;;;1.40;;
40022;SDS011;25713;-35.352;149.036;2023-07-22T13:41:07;2.88;;;1.58;;
40022;SDS011;25713;-35.352;149.036;2023-07-22T13:43:36;2.75;;;1.80;;
40022;SDS011;25713;-35.352;149.036;2023-07-22T13:46:06;5.15;;;2.45;;
40022;SDS011;25713;-35.352;149.036;2023-07-22T13:48:37;3.40;;;1.90;;
40022;SDS011;25713;-35.352;149.036;2023-07-22T13:51:06;2.95;;;1.80;;
40022;SDS011;25713;-35.352;149.036;2023-07-22T13:53:36;2.78;;;1.95;;
40022;SDS011;25713;-35.352;149.036;2023-07-22T13:56:06;2.30;;;1.80;;
40022;SDS011;25713;-35.352;149.036;2023-07-22T13:58:35;2.67;;;1.88;;
40022;SDS011;25713;-35.352;149.036;2023-07-22T14:01:04;2.70;;;1.67;;
40022;SDS011;25713;-35.352;149.036;2023-07-22T14:03:36;4.53;;;1.98;;
40022;SDS011;25713;-35.352;149.036;2023-07-22T14:06:05;2.93;;;1.90;;
40022;SDS011;25713;-35.352;149.036;2023-07-22T14:08:35;2.75;;;1.80;;
40022;SDS011;25713;-35.352;149.036;2023-07-22T14:11:04;2.72;;;1.95;;
40022;SDS011;25713;-35.352;149.036;2023-07-22T14:13:33;3.00;;;2.00;;
40022;SDS011;25713;-35.352;149.036;2023-07-22T14:16:03;2.78;;;1.70;;
40022;SDS011;25713;-35.352;149.036;2023-07-22T14:18:33;2.08;;;1.60;;
40022;SDS011;25713;-35.352;149.036;2023-07-22T14:21:04;4.00;;;1.88;;
40022;SDS011;25713;-35.352;149.036;2023-07-22T14:23:33;2.88;;;2.10;;
40022;SDS011;25713;-35.352;149.036;2023-07-22T14:26:03;2.88;;;1.70;;
40022;SDS011;25713;-35.352;149.036;2023-07-22T14:28:32;3.05;;;1.58;;
40022;SDS011;25713;-35.352;149.036;2023-07-22T14:31:01;3.15;;;1.60;;
40022;SDS011;25713;-35.352;149.036;2023-07-22T14:33:31;3.85;;;1.80;;
40022;SDS011;25713;-35.352;149.036;2023-07-22T14:36:02;2.45;;;1.60;;
40022;SDS011;25713;-35.352;149.036;2023-07-22T14:38:32;2.10;;;1.30;;
40022;SDS011;25713;-35.352;149.036;2023-07-22T14:41:01;1.55;;;1.23;;
40022;SDS011;25713;-35.352;149.036;2023-07-22T14:43:30;2.33;;;1.30;;
40022;SDS011;25713;-35.352;149.036;2023-07-22T14:46:00;1.98;;;1.40;;